createdAt,value
2017-08-29T16:07:24.283Z,37.47
2017-08-29T16:09:52.187Z,37.75
2017-08-29T16:12:20.107Z,37.64
2017-08-29T16:14:48.027Z,37.66
2017-08-29T16:17:15.950Z,37.65
2017-08-29T16:19:43.871Z,37.88
2017-08-29T16:22:11.827Z,37.79
2017-08-29T16:24:39.730Z,38.16
2017-08-29T16:27:07.645Z,37.95
2017-08-29T16:29:35.551Z,38.25
2017-08-29T16:32:03.472Z,38.01
2017-08-29T16:34:31.400Z,38.03
2017-08-29T16:36:59.311Z,38.01
2017-08-29T16:39:27.219Z,38.02
2017-08-29T16:41:55.339Z,38.25
2017-08-29T16:44:23.259Z,38.40
2017-08-29T16:46:51.173Z,38.56
2017-08-29T16:49:19.108Z,38.76
2017-08-29T16:51:47.017Z,38.79
2017-08-29T16:54:14.946Z,39.00
2017-08-29T16:56:42.853Z,38.95
2017-08-29T16:59:10.766Z,39.10
2017-08-29T17:01:38.667Z,39.21
2017-08-29T17:04:06.596Z,39.09
2017-08-29T17:06:34.619Z,39.42
2017-08-29T17:09:02.692Z,39.62
2017-08-29T17:11:30.609Z,39.63
2017-08-29T17:13:58.515Z,39.65
2017-08-29T17:16:26.452Z,39.83
2017-08-29T17:18:54.362Z,40.10
2017-08-29T17:21:22.284Z,40.53
2017-08-29T17:23:50.195Z,40.44
2017-08-29T17:26:18.282Z,40.90
2017-08-29T17:28:46.187Z,41.03
2017-08-29T17:31:14.121Z,41.40
2017-08-29T17:33:42.034Z,41.68
2017-08-29T17:36:09.950Z,41.85
2017-08-29T17:38:37.865Z,42.09
2017-08-29T17:41:05.777Z,42.70
2017-08-29T17:43:33.698Z,43.06
2017-08-29T17:46:01.616Z,43.26
2017-08-29T17:48:29.527Z,43.53
2017-08-29T17:50:57.436Z,43.66
2017-08-29T17:53:25.346Z,43.97
2017-08-29T17:55:53.261Z,44.39
2017-08-29T17:58:21.291Z,44.39
2017-08-29T18:00:49.195Z,44.71
2017-08-29T18:03:17.123Z,44.92
2017-08-29T18:05:45.052Z,46.23
2017-08-29T18:08:12.976Z,46.63
2017-08-29T18:10:40.898Z,46.63
2017-08-29T18:13:08.820Z,47.26
2017-08-29T18:15:36.864Z,47.13
2017-08-29T18:18:04.877Z,47.12
2017-08-29T18:20:32.783Z,47.99
2017-08-29T18:23:00.717Z,47.95
2017-08-29T18:25:28.621Z,48.28
2017-08-29T18:27:56.538Z,48.17
2017-08-29T18:30:24.460Z,48.55
2017-08-29T18:32:52.373Z,48.56
2017-08-29T18:35:20.287Z,48.76
2017-08-29T18:37:48.203Z,49.24
2017-08-29T18:40:16.150Z,49.48
2017-08-29T18:42:44.217Z,49.68
2017-08-29T18:45:12.125Z,49.76
2017-08-29T18:47:40.038Z,50.32
2017-08-29T18:50:07.955Z,50.80
2017-08-29T18:52:35.870Z,50.32
2017-08-29T18:55:03.793Z,50.39
2017-08-29T18:57:31.709Z,50.54
2017-08-29T18:59:59.634Z,50.83
2017-08-29T19:02:27.552Z,51.41
2017-08-29T19:04:55.488Z,51.44
2017-08-29T19:07:23.646Z,51.87
2017-08-29T19:09:51.770Z,51.74
2017-08-29T19:12:19.682Z,52.16
2017-08-29T19:14:47.632Z,52.04
2017-08-29T19:17:15.557Z,52.17
2017-08-29T19:19:43.459Z,52.15
2017-08-29T19:22:11.380Z,52.87
2017-08-29T19:24:39.300Z,52.89
2017-08-29T19:27:07.216Z,53.40
2017-08-29T19:29:35.126Z,53.31
2017-08-29T19:32:03.064Z,53.95
2017-08-29T19:34:31.022Z,53.53
2017-08-29T19:36:59.035Z,53.15
2017-08-29T19:39:27.029Z,53.39
2017-08-29T19:41:54.942Z,54.07
2017-08-29T19:44:22.879Z,53.26
2017-08-29T19:46:50.912Z,53.58
2017-08-29T19:49:18.843Z,53.79
2017-08-29T19:51:46.773Z,54.09
2017-08-29T19:54:14.709Z,54.48
2017-08-29T19:56:42.683Z,54.44
2017-08-29T19:59:10.612Z,54.75
2017-08-29T20:01:38.508Z,54.90
2017-08-29T20:04:06.433Z,55.20
2017-08-29T20:06:34.353Z,55.29
2017-08-29T20:09:02.293Z,55.45
2017-08-29T20:11:30.355Z,55.69
2017-08-29T20:13:58.277Z,55.83
2017-08-29T20:16:26.296Z,56.14
2017-08-29T20:18:54.234Z,56.34
2017-08-29T20:21:22.170Z,56.19
2017-08-29T20:23:50.073Z,56.57
2017-08-29T20:26:18.462Z,56.63
2017-08-29T20:28:46.365Z,56.82
2017-08-29T20:31:14.275Z,57.13
2017-08-29T20:33:42.565Z,57.29
2017-08-29T20:36:10.483Z,57.69
2017-08-29T20:38:38.514Z,57.85
2017-08-29T20:41:07.185Z,58.12
2017-08-29T20:43:35.101Z,58.15
2017-08-29T20:46:03.005Z,58.22
2017-08-29T20:48:31.193Z,58.54
2017-08-29T20:50:59.114Z,58.89
2017-08-29T20:53:27.020Z,59.09
2017-08-29T20:55:55.214Z,59.42
2017-08-29T20:58:23.124Z,59.81
2017-08-29T21:00:51.022Z,60.09
2017-08-29T21:03:19.424Z,60.21
2017-08-29T21:05:47.340Z,60.40
2017-08-29T21:08:15.257Z,60.71
2017-08-29T21:10:43.477Z,61.04
2017-08-29T21:13:11.383Z,61.15
2017-08-29T21:15:39.302Z,61.43
2017-08-29T21:18:07.652Z,61.79
2017-08-29T21:20:35.578Z,62.07
2017-08-29T21:23:03.502Z,62.40
2017-08-29T21:25:31.420Z,62.63
2017-08-29T21:27:59.386Z,62.73
2017-08-29T21:30:27.302Z,62.85
2017-08-29T21:32:55.208Z,63.12
2017-08-29T21:35:23.129Z,63.28
2017-08-29T21:37:51.053Z,63.29
2017-08-29T21:40:19.186Z,63.27
2017-08-29T21:42:47.100Z,63.17
2017-08-29T21:45:15.037Z,63.35
2017-08-29T21:47:42.930Z,63.52
2017-08-29T21:50:10.840Z,63.51
2017-08-29T21:52:38.769Z,63.64
2017-08-29T21:55:06.680Z,63.91
2017-08-29T21:57:34.626Z,63.88
2017-08-29T22:00:02.545Z,63.87
2017-08-29T22:02:30.470Z,64.35
2017-08-29T22:04:58.393Z,64.74
2017-08-29T22:07:26.320Z,64.79
2017-08-29T22:09:54.243Z,64.94
2017-08-29T22:12:22.242Z,64.95
2017-08-29T22:14:50.153Z,65.20
2017-08-29T22:17:18.428Z,65.30
2017-08-29T22:19:46.332Z,65.38
2017-08-29T22:22:14.248Z,65.58
2017-08-29T22:24:42.160Z,65.88
2017-08-29T22:27:10.073Z,66.07
2017-08-29T22:29:38.006Z,66.38
2017-08-29T22:32:05.923Z,66.62
2017-08-29T22:34:33.839Z,66.72
2017-08-29T22:37:01.761Z,66.88
2017-08-29T22:39:29.678Z,67.05
2017-08-29T22:41:57.593Z,67.15
2017-08-29T22:44:25.519Z,67.30
2017-08-29T22:46:53.433Z,67.27
2017-08-29T22:49:21.630Z,67.57
2017-08-29T22:51:49.540Z,67.67
2017-08-29T22:54:17.466Z,67.74
2017-08-29T22:56:45.387Z,67.84
2017-08-29T22:59:13.293Z,67.87
2017-08-29T23:01:41.214Z,68.00
2017-08-29T23:04:09.114Z,68.00
2017-08-29T23:06:37.031Z,68.14
2017-08-29T23:09:04.954Z,68.19
2017-08-29T23:11:32.879Z,68.49
2017-08-29T23:14:00.787Z,68.36
2017-08-29T23:16:28.824Z,68.70
2017-08-29T23:18:56.744Z,68.98
2017-08-29T23:21:24.659Z,69.17
2017-08-29T23:23:52.584Z,69.12
2017-08-29T23:26:20.495Z,69.38
2017-08-29T23:28:48.423Z,69.44
2017-08-29T23:31:16.337Z,69.73
2017-08-29T23:33:44.264Z,69.59
2017-08-29T23:36:12.172Z,69.90
2017-08-29T23:38:40.092Z,70.10
2017-08-29T23:41:08.036Z,70.41
2017-08-29T23:43:35.991Z,70.54
2017-08-29T23:46:03.900Z,70.55
2017-08-29T23:48:31.815Z,70.69
2017-08-29T23:50:59.740Z,70.73
2017-08-29T23:53:27.666Z,70.70
2017-08-29T23:55:55.597Z,70.71
2017-08-29T23:58:23.503Z,70.72
